createdAt,value
2023-02-03T00:02:25.890Z,98693.81
2023-02-03T00:04:53.253Z,98785.72
2023-02-03T00:07:21.047Z,98777.09
2023-02-03T00:09:48.490Z,98777.88
2023-02-03T00:12:15.812Z,98684.34
2023-02-03T00:14:43.499Z,98783.84
2023-02-03T00:17:10.800Z,98787.41
2023-02-03T00:19:40.119Z,98779.59
2023-02-03T00:22:08.494Z,98784.00
2023-02-03T00:24:36.053Z,98670.50
2023-02-03T00:27:03.537Z,98768.47
2023-02-03T00:29:30.894Z,98784.81
2023-02-03T00:31:59.374Z,98779.50
2023-02-03T00:34:31.020Z,98624.19
2023-02-03T00:36:58.947Z,98721.19
2023-02-03T00:39:26.371Z,98782.84
2023-02-03T00:41:53.862Z,98783.69
2023-02-03T00:44:22.821Z,98686.81
2023-02-03T00:46:51.124Z,98785.59
2023-02-03T00:49:18.833Z,98732.31
2023-02-03T00:51:46.695Z,98682.63
2023-02-03T00:54:14.806Z,98777.06
2023-02-03T00:56:42.241Z,98673.16
2023-02-03T00:59:10.440Z,98715.34
2023-02-03T01:01:38.378Z,98785.66
2023-02-03T01:04:06.214Z,98733.97
2023-02-03T01:06:34.854Z,98772.66
2023-02-03T01:09:03.368Z,98775.16
2023-02-03T01:11:32.481Z,98781.22
2023-02-03T01:14:01.941Z,98764.06
2023-02-03T01:16:31.223Z,98762.16
2023-02-03T01:18:58.733Z,98766.41
2023-02-03T01:21:27.310Z,98770.59
2023-02-03T01:23:56.317Z,98762.91
2023-02-03T01:26:28.660Z,98758.56
2023-02-03T01:28:58.725Z,98768.84
2023-02-03T01:31:32.352Z,98769.97
2023-02-03T01:34:00.373Z,98687.53
2023-02-03T01:36:30.973Z,98768.16
2023-02-03T01:38:58.726Z,98736.47
2023-02-03T01:41:33.682Z,98764.66
2023-02-03T01:44:03.095Z,98591.34
2023-02-03T01:46:36.121Z,98767.38
2023-02-03T01:49:06.945Z,98769.06
2023-02-03T01:51:35.803Z,98767.31
2023-02-03T01:54:03.968Z,98768.25
2023-02-03T01:56:37.587Z,98580.28
2023-02-03T01:59:05.779Z,98757.78
2023-02-03T02:01:35.170Z,98762.16
2023-02-03T02:04:04.490Z,98739.78
2023-02-03T02:06:31.974Z,98748.31
2023-02-03T02:09:01.131Z,98555.19
2023-02-03T02:11:29.587Z,98756.75
2023-02-03T02:14:02.471Z,98754.19
2023-02-03T02:17:06.828Z,98755.94
2023-02-03T02:20:14.719Z,98756.75
2023-02-03T02:23:20.419Z,98748.00
2023-02-03T02:26:27.829Z,98752.22
2023-02-03T02:29:19.450Z,98752.34
2023-02-03T02:32:08.621Z,98745.41
2023-02-03T02:34:48.345Z,98751.38
2023-02-03T02:37:34.921Z,98748.75
2023-02-03T02:40:19.324Z,98743.63
2023-02-03T02:43:04.285Z,98749.00
2023-02-03T02:45:49.983Z,98748.91
2023-02-03T02:48:40.398Z,98748.81
2023-02-03T02:51:12.718Z,98740.19
2023-02-03T02:53:46.307Z,98735.28
2023-02-03T02:56:16.670Z,98748.09
2023-02-03T02:58:47.528Z,98635.59
2023-02-03T03:01:17.598Z,98748.09
2023-02-03T03:03:45.653Z,98746.47
2023-02-03T03:06:30.357Z,98735.34
2023-02-03T03:09:44.645Z,98743.19
2023-02-03T03:12:22.055Z,98751.78
2023-02-03T03:15:03.848Z,98643.44
2023-02-03T03:17:41.127Z,98758.56
2023-02-03T03:20:13.892Z,98758.56
2023-02-03T03:23:05.551Z,98658.00
2023-02-03T03:25:41.125Z,98745.50
2023-02-03T03:28:24.565Z,98745.38
2023-02-03T03:30:52.740Z,98602.94
2023-02-03T03:33:22.196Z,98728.91
2023-02-03T03:35:54.359Z,98725.50
2023-02-03T03:38:33.227Z,98726.16
2023-02-03T03:41:18.213Z,98743.16
2023-02-03T03:43:48.416Z,98742.25
2023-02-03T03:46:26.228Z,98744.97
2023-02-03T03:49:01.909Z,98743.28
2023-02-03T03:51:37.569Z,98731.13
2023-02-03T03:54:11.267Z,98758.88
2023-02-03T03:56:48.034Z,98743.34
2023-02-03T03:59:20.470Z,98744.91
2023-02-03T04:01:50.999Z,98748.22
2023-02-03T04:04:19.932Z,98745.69
2023-02-03T04:06:47.263Z,98733.63
2023-02-03T04:09:14.831Z,98662.50
2023-02-03T04:12:00.761Z,98743.88
2023-02-03T04:14:36.046Z,98739.56
2023-02-03T04:17:03.399Z,98736.84
2023-02-03T04:19:31.076Z,98742.63
2023-02-03T04:21:58.844Z,98751.22
2023-02-03T04:24:26.532Z,98749.53
2023-02-03T04:26:54.086Z,98664.63
2023-02-03T04:29:21.568Z,98741.78
2023-02-03T04:31:49.213Z,98728.25
2023-02-03T04:34:17.448Z,98619.38
2023-02-03T04:36:45.293Z,98752.50
2023-02-03T04:39:12.765Z,98727.59
2023-02-03T04:41:40.271Z,98636.59
2023-02-03T04:44:07.907Z,98746.84
2023-02-03T04:46:35.716Z,98742.56
2023-02-03T04:49:03.450Z,98626.19
2023-02-03T04:51:31.435Z,98745.16
2023-02-03T04:53:58.820Z,98757.13
2023-02-03T04:56:26.501Z,98710.63
2023-02-03T04:58:54.188Z,98734.56
2023-02-03T05:01:21.777Z,98726.72
2023-02-03T05:03:49.973Z,98724.81
2023-02-03T05:06:17.393Z,98745.13
2023-02-03T05:08:44.763Z,98699.66
2023-02-03T05:11:12.425Z,98736.50
2023-02-03T05:13:39.837Z,98687.69
2023-02-03T05:16:07.420Z,98647.28
2023-02-03T05:18:34.974Z,98721.03
2023-02-03T05:21:02.671Z,98714.06
2023-02-03T05:23:30.071Z,98654.06
2023-02-03T05:25:57.566Z,98755.97
2023-02-03T05:28:25.156Z,98749.59
2023-02-03T05:30:52.868Z,98659.44
2023-02-03T05:33:20.803Z,98747.59
2023-02-03T05:35:48.376Z,98742.38
2023-02-03T05:38:16.011Z,98743.31
2023-02-03T05:41:01.961Z,98744.25
2023-02-03T05:43:29.976Z,98743.78
2023-02-03T05:46:01.591Z,98749.63
2023-02-03T05:48:29.999Z,98740.63
2023-02-03T05:50:57.884Z,98716.75
2023-02-03T05:53:26.474Z,98722.59
2023-02-03T05:55:54.307Z,98562.31
2023-02-03T05:58:22.417Z,98754.56
2023-02-03T06:00:49.936Z,98688.63
2023-02-03T06:03:17.448Z,98765.81
2023-02-03T06:05:45.216Z,98764.88
2023-02-03T06:08:12.729Z,98670.06
2023-02-03T06:10:40.318Z,98744.50
2023-02-03T06:13:16.307Z,98753.97
2023-02-03T06:15:44.551Z,98762.06
2023-02-03T06:18:12.031Z,98659.03
2023-02-03T06:20:39.312Z,98756.22
2023-02-03T06:23:06.776Z,98760.53
2023-02-03T06:25:34.445Z,98586.41
2023-02-03T06:28:01.897Z,98770.13
2023-02-03T06:30:29.927Z,98757.44
2023-02-03T06:32:57.676Z,98758.00
2023-02-03T06:35:25.089Z,98757.91
2023-02-03T06:37:52.820Z,98735.47
2023-02-03T06:40:20.692Z,98747.34
2023-02-03T06:42:48.728Z,98762.03
2023-02-03T06:45:17.599Z,98714.97
2023-02-03T06:47:45.778Z,98769.44
2023-02-03T06:50:15.616Z,98765.56
2023-02-03T06:52:44.388Z,98731.38
2023-02-03T06:55:12.263Z,98768.13
2023-02-03T06:57:48.136Z,98768.88
2023-02-03T07:00:26.422Z,98767.06
2023-02-03T07:02:55.784Z,98608.03
2023-02-03T07:05:24.296Z,98756.53
2023-02-03T07:07:52.533Z,98756.50
2023-02-03T07:10:20.397Z,98754.72
2023-02-03T07:12:48.200Z,98743.94
2023-02-03T07:15:15.643Z,98759.91
2023-02-03T07:17:43.584Z,98651.50
2023-02-03T07:20:11.675Z,98768.34
2023-02-03T07:22:40.879Z,98760.53
2023-02-03T07:25:08.755Z,98761.38
2023-02-03T07:27:36.385Z,98743.19
2023-02-03T07:30:04.865Z,98768.59
2023-02-03T07:32:33.864Z,98760.91
2023-02-03T07:35:01.675Z,98749.75
2023-02-03T07:37:31.027Z,98684.81
2023-02-03T07:39:58.584Z,98759.38
2023-02-03T07:42:25.957Z,98763.88
2023-02-03T07:44:53.446Z,98572.44
2023-02-03T07:47:21.370Z,98754.88
2023-02-03T07:49:48.882Z,98733.44
2023-02-03T07:52:17.120Z,98685.22
2023-02-03T07:54:44.997Z,98753.56
2023-02-03T07:57:12.226Z,98747.66
2023-02-03T07:59:39.954Z,98757.91
2023-02-03T08:02:09.499Z,98759.34
2023-02-03T08:04:37.536Z,98733.53
2023-02-03T08:07:05.354Z,98753.38
2023-02-03T08:09:33.141Z,98745.56
2023-02-03T08:12:00.698Z,98651.31
2023-02-03T08:14:28.117Z,98656.00
2023-02-03T08:16:55.770Z,98750.53
2023-02-03T08:19:23.385Z,98720.38
2023-02-03T08:21:51.681Z,98673.44
2023-02-03T08:24:19.500Z,98748.63
2023-02-03T08:26:47.334Z,98646.72
2023-02-03T08:29:14.888Z,98724.22
2023-02-03T08:31:43.333Z,98743.31
2023-02-03T08:34:11.012Z,98617.53
2023-02-03T08:36:40.192Z,98635.53
2023-02-03T08:39:08.032Z,98731.22
2023-02-03T08:41:35.622Z,98731.19
2023-02-03T08:44:03.163Z,98736.91
2023-02-03T08:46:30.722Z,98735.88
2023-02-03T08:48:58.208Z,98608.19
2023-02-03T08:51:26.254Z,98746.09
2023-02-03T08:53:54.271Z,98733.81
2023-02-03T08:56:22.054Z,98644.72
2023-02-03T08:58:49.817Z,98637.78
2023-02-03T09:01:17.608Z,98653.28
2023-02-03T09:03:45.040Z,98741.72
2023-02-03T09:06:16.772Z,98739.13
2023-02-03T09:08:46.404Z,98625.44
2023-02-03T09:11:16.268Z,98739.88
2023-02-03T09:13:47.137Z,98732.69
2023-02-03T09:16:17.677Z,98729.91
2023-02-03T09:18:45.876Z,98731.41
2023-02-03T09:21:32.073Z,98738.72
2023-02-03T09:24:03.812Z,98654.59
2023-02-03T09:26:31.727Z,98729.97
2023-02-03T09:28:59.655Z,98720.03
2023-02-03T09:31:27.569Z,98672.63
2023-02-03T09:33:55.522Z,98730.75
2023-02-03T09:36:22.933Z,98659.03
2023-02-03T09:38:50.271Z,98666.53
2023-02-03T09:41:32.629Z,98735.22
2023-02-03T09:44:24.818Z,98619.34
2023-02-03T09:46:57.428Z,98727.47
2023-02-03T09:49:39.013Z,98695.41
2023-02-03T09:52:16.091Z,98720.78
2023-02-03T09:55:04.492Z,98728.19
2023-02-03T09:57:40.836Z,98721.00
2023-02-03T10:00:21.178Z,98728.34
2023-02-03T10:03:04.457Z,98729.16
2023-02-03T10:05:44.030Z,98735.50
2023-02-03T10:08:35.259Z,98731.50
2023-02-03T10:11:25.457Z,98724.88
2023-02-03T10:14:08.151Z,98726.25
2023-02-03T10:16:41.703Z,98732.13
2023-02-03T10:19:20.926Z,98723.38
2023-02-03T10:21:58.828Z,98712.16
2023-02-03T10:24:37.547Z,98637.41
2023-02-03T10:27:05.159Z,98729.66
2023-02-03T10:29:43.048Z,98696.97
2023-02-03T10:32:12.120Z,98724.56
2023-02-03T10:34:40.221Z,98674.16
2023-02-03T10:37:30.210Z,98715.63
2023-02-03T10:40:01.871Z,98622.94
2023-02-03T10:42:53.255Z,98710.84
2023-02-03T10:45:21.298Z,98709.72
2023-02-03T10:47:59.369Z,98612.16
2023-02-03T10:50:33.903Z,98713.84
2023-02-03T10:53:22.963Z,98724.16
2023-02-03T10:56:14.331Z,98716.19
2023-02-03T10:58:59.429Z,98720.66
2023-02-03T11:01:39.275Z,98658.91
2023-02-03T11:04:23.897Z,98703.13
2023-02-03T11:06:57.724Z,98708.06
2023-02-03T11:09:40.202Z,98704.56
2023-02-03T11:12:16.294Z,98669.59
2023-02-03T11:14:47.285Z,98694.63
2023-02-03T11:17:19.236Z,98703.22
2023-02-03T11:19:49.233Z,98621.56
2023-02-03T11:22:38.417Z,98557.31
2023-02-03T11:25:19.510Z,98612.53
2023-02-03T11:27:50.407Z,98694.56
2023-02-03T11:30:32.272Z,98706.91
2023-02-03T11:33:03.987Z,98701.69
2023-02-03T11:35:33.796Z,98616.22
2023-02-03T11:38:02.506Z,98615.47
2023-02-03T11:40:32.738Z,98694.38
2023-02-03T11:43:16.710Z,98701.34
2023-02-03T11:45:47.829Z,98699.78
2023-02-03T11:48:33.589Z,98692.69
2023-02-03T11:51:19.183Z,98694.38
2023-02-03T11:53:57.530Z,98617.19
2023-02-03T11:57:02.159Z,98694.94
2023-02-03T11:59:44.840Z,98695.81
2023-02-03T12:02:49.426Z,98682.31
2023-02-03T12:05:38.213Z,98694.69
2023-02-03T12:08:12.969Z,98681.00
2023-02-03T12:10:55.746Z,98685.34
2023-02-03T12:13:51.233Z,98692.25
2023-02-03T12:16:28.095Z,98682.53
2023-02-03T12:19:32.027Z,98681.50
2023-02-03T12:22:26.076Z,98680.47
2023-02-03T12:24:59.731Z,98678.13
2023-02-03T12:27:56.603Z,98604.91
2023-02-03T12:30:39.862Z,98680.34
2023-02-03T12:33:17.725Z,98684.75
2023-02-03T12:36:11.652Z,98659.25
2023-02-03T12:38:48.528Z,98592.56
2023-02-03T12:41:46.677Z,98676.59
2023-02-03T12:44:26.211Z,98586.84
2023-02-03T12:47:25.241Z,98652.81
2023-02-03T12:49:58.900Z,98688.16
2023-02-03T12:52:38.120Z,98690.03
2023-02-03T12:55:28.903Z,98679.75
2023-02-03T12:58:03.352Z,98679.75
2023-02-03T13:00:59.323Z,98679.59
2023-02-03T13:03:32.938Z,98625.56
2023-02-03T13:06:20.668Z,98674.81
2023-02-03T13:08:56.018Z,98674.28
2023-02-03T13:11:32.446Z,98672.81
2023-02-03T13:14:31.062Z,98681.00
2023-02-03T13:17:28.286Z,98681.13
2023-02-03T13:20:02.726Z,98674.91
2023-02-03T13:22:30.741Z,98679.25
2023-02-03T13:25:23.535Z,98551.94
2023-02-03T13:28:01.027Z,98677.72
2023-02-03T13:30:47.090Z,98677.53
2023-02-03T13:33:36.845Z,98673.97
2023-02-03T13:36:31.876Z,98677.44
2023-02-03T13:39:33.066Z,98679.50
2023-02-03T13:42:30.510Z,98557.56
2023-02-03T13:45:06.617Z,98607.25
2023-02-03T13:47:34.462Z,98659.34
2023-02-03T13:50:20.941Z,98659.53
2023-02-03T13:53:08.905Z,98682.00
2023-02-03T13:55:55.235Z,98691.56
2023-02-03T13:58:32.859Z,98682.94
2023-02-03T14:01:07.585Z,98668.53
2023-02-03T14:03:35.030Z,98688.25
2023-02-03T14:06:03.816Z,98576.41
2023-02-03T14:08:31.632Z,98686.91
2023-02-03T14:11:36.259Z,98610.00
2023-02-03T14:14:12.475Z,98684.69
2023-02-03T14:16:54.795Z,98691.91
2023-02-03T14:19:22.581Z,98694.53
2023-02-03T14:21:59.020Z,98691.13
2023-02-03T14:24:42.895Z,98624.25
2023-02-03T14:27:30.423Z,98682.34
2023-02-03T14:30:11.146Z,98688.41
2023-02-03T14:33:00.313Z,98581.47
2023-02-03T14:35:35.667Z,98683.91
2023-02-03T14:38:15.389Z,98690.84
2023-02-03T14:41:03.248Z,98693.50
2023-02-03T14:43:45.819Z,98687.56
2023-02-03T14:46:42.438Z,98684.31
2023-02-03T14:49:19.096Z,98687.69
2023-02-03T14:52:27.922Z,98680.13
2023-02-03T14:55:13.407Z,98691.63
2023-02-03T14:57:44.349Z,98678.66
2023-02-03T15:00:21.918Z,98690.78
2023-02-03T15:03:10.696Z,98681.22
2023-02-03T15:05:49.721Z,98663.19
2023-02-03T15:08:43.050Z,98686.09
2023-02-03T15:11:27.770Z,98688.63
2023-02-03T15:13:58.383Z,98593.47
2023-02-03T15:16:27.417Z,98690.91
2023-02-03T15:19:00.970Z,98690.06
2023-02-03T15:21:28.647Z,98519.53
2023-02-03T15:23:56.213Z,98649.88
2023-02-03T15:26:27.396Z,98652.72
2023-02-03T15:29:03.587Z,98683.81
2023-02-03T15:31:44.301Z,98693.97
2023-02-03T15:34:22.185Z,98693.81
2023-02-03T15:36:54.439Z,98618.41
2023-02-03T15:39:39.242Z,98508.84
2023-02-03T15:42:14.798Z,98692.06
2023-02-03T15:44:49.601Z,98657.69
2023-02-03T15:47:40.576Z,98574.50
2023-02-03T15:50:41.922Z,98714.38
2023-02-03T15:53:41.114Z,98705.72
2023-02-03T15:56:21.778Z,98697.28
2023-02-03T15:58:50.352Z,98711.84
2023-02-03T16:01:23.707Z,98710.81
2023-02-03T16:03:54.630Z,98696.13
2023-02-03T16:06:27.389Z,98722.75
2023-02-03T16:08:56.163Z,98715.09
2023-02-03T16:11:39.357Z,98711.75
2023-02-03T16:18:00.072Z,98633.44
2023-02-03T16:20:33.586Z,98633.44
2023-02-03T16:23:18.888Z,98695.97
2023-02-03T16:26:17.704Z,98633.34
2023-02-03T16:29:22.795Z,98673.00
2023-02-03T16:32:09.192Z,98716.50
2023-02-03T16:34:56.058Z,98585.44
2023-02-03T16:37:48.760Z,98720.38
2023-02-03T16:43:59.120Z,98560.69
2023-02-03T16:46:45.020Z,98694.28
2023-02-03T16:49:31.399Z,98639.38
2023-02-03T16:51:58.993Z,98724.25
2023-02-03T16:54:30.934Z,98639.47
2023-02-03T16:56:59.011Z,98730.28
2023-02-03T16:59:26.501Z,98669.19
2023-02-03T17:01:59.712Z,98724.84
2023-02-03T17:04:29.597Z,98723.09
2023-02-03T17:06:57.440Z,98725.78
2023-02-03T17:09:25.814Z,98635.03
2023-02-03T17:11:57.424Z,98711.06
2023-02-03T17:14:26.852Z,98626.22
2023-02-03T17:16:54.465Z,98583.28
2023-02-03T17:19:22.152Z,98740.25
2023-02-03T17:21:51.674Z,98640.00
2023-02-03T17:24:19.757Z,98654.00
2023-02-03T17:26:50.680Z,98656.53
2023-02-03T17:29:18.470Z,98640.47
2023-02-03T17:31:48.970Z,98634.38
2023-02-03T17:34:19.500Z,98721.88
2023-02-03T17:36:47.339Z,98732.97
2023-02-03T17:55:38.420Z,98745.94
2023-02-03T17:58:05.745Z,98710.75
2023-02-03T18:00:38.551Z,98665.09
2023-02-03T18:03:06.316Z,98773.28
2023-02-03T18:05:37.858Z,98763.72
2023-02-03T18:08:16.073Z,98760.34
2023-02-03T18:10:44.385Z,98684.03
2023-02-03T18:13:12.016Z,98738.09
2023-02-03T18:15:41.841Z,98764.72
2023-02-03T18:18:14.217Z,98751.06
2023-02-03T18:20:42.563Z,98777.72
2023-02-03T18:23:09.957Z,98771.75
2023-02-03T18:25:38.553Z,98772.72
2023-02-03T18:28:06.396Z,98698.09
2023-02-03T18:30:33.969Z,98776.03
2023-02-03T18:33:02.418Z,98779.41
2023-02-03T18:35:30.724Z,98787.22
2023-02-03T18:37:58.067Z,98787.16
2023-02-03T18:40:26.023Z,98790.44
2023-02-03T18:42:56.558Z,98789.44
2023-02-03T18:45:23.968Z,98778.28
2023-02-03T18:47:51.376Z,98798.19
2023-02-03T18:50:19.398Z,98747.63
2023-02-03T18:52:46.875Z,98797.34
2023-02-03T18:55:14.664Z,98790.56
2023-02-03T18:57:42.558Z,98789.66
2023-02-03T19:00:10.676Z,98793.97
2023-02-03T19:02:38.108Z,98800.00
2023-02-03T19:05:06.561Z,98795.56
2023-02-03T19:07:34.354Z,98750.34
2023-02-03T19:10:08.410Z,98699.56
2023-02-03T19:12:42.204Z,98793.00
2023-02-03T19:15:20.820Z,98779.34
2023-02-03T19:17:53.732Z,98677.50
2023-02-03T19:20:22.460Z,98789.06
2023-02-03T19:22:58.033Z,98736.03
2023-02-03T19:25:25.912Z,98601.44
2023-02-03T19:27:53.579Z,98799.31
2023-02-03T19:30:26.268Z,98808.75
2023-02-03T19:32:54.065Z,98700.69
2023-02-03T19:35:40.708Z,98757.38
2023-02-03T19:38:13.390Z,98786.47
2023-02-03T19:40:41.726Z,98718.66
2023-02-03T19:43:10.228Z,98814.66
2023-02-03T19:45:45.742Z,98823.38
2023-02-03T19:48:18.171Z,98800.34
2023-02-03T19:50:52.186Z,98704.31
2023-02-03T19:53:22.887Z,98796.16
2023-02-03T19:55:57.782Z,98821.16
2023-02-03T19:58:36.778Z,98683.00
2023-02-03T20:01:09.829Z,98773.44
2023-02-03T20:03:37.491Z,98734.03
2023-02-03T20:06:05.660Z,98838.78
2023-02-03T20:08:52.868Z,98737.47
2023-02-03T20:11:25.673Z,98833.63
2023-02-03T20:13:57.788Z,98662.19
2023-02-03T20:16:26.492Z,98721.38
2023-02-03T20:19:02.214Z,98822.69
2023-02-03T20:21:33.506Z,98794.53
2023-02-03T20:24:02.078Z,98841.78
2023-02-03T20:26:34.612Z,98735.53
2023-02-03T20:29:08.062Z,98851.41
2023-02-03T20:31:41.592Z,98807.78
2023-02-03T20:34:09.842Z,98842.94
2023-02-03T20:36:37.427Z,98749.25
2023-02-03T20:39:32.238Z,98852.47
2023-02-03T20:42:23.986Z,98721.09
2023-02-03T20:44:51.765Z,98864.38
2023-02-03T20:47:27.017Z,98857.25
2023-02-03T20:50:00.361Z,98828.13
2023-02-03T20:52:28.440Z,98840.59
2023-02-03T20:55:00.950Z,98686.28
2023-02-03T20:57:36.951Z,98763.75
2023-02-03T21:00:35.453Z,98843.91
2023-02-03T21:03:21.518Z,98855.91
2023-02-03T21:05:49.357Z,98867.09
2023-02-03T21:08:19.744Z,98890.38
2023-02-03T21:10:48.779Z,98881.31
2023-02-03T21:13:22.708Z,98869.16
2023-02-03T21:15:55.775Z,98884.66
2023-02-03T21:18:34.261Z,98885.72
2023-02-03T21:21:02.646Z,98906.50
2023-02-03T21:23:40.281Z,98904.06
2023-02-03T21:26:19.951Z,98898.13
2023-02-03T21:28:53.399Z,98883.59
2023-02-03T21:31:32.462Z,98706.75
2023-02-03T21:34:06.349Z,98907.84
2023-02-03T21:36:38.341Z,98901.69
2023-02-03T21:39:30.134Z,98808.06
2023-02-03T21:42:01.052Z,98897.41
2023-02-03T21:44:35.931Z,98754.78
2023-02-03T21:47:15.140Z,98901.78
2023-02-03T21:49:42.599Z,98882.75
2023-02-03T21:52:18.623Z,98848.41
2023-02-03T21:54:48.287Z,98906.91
2023-02-03T21:57:16.053Z,98908.59
2023-02-03T21:59:46.956Z,98907.75
2023-02-03T22:02:43.033Z,98907.84
2023-02-03T22:05:16.642Z,98914.75
2023-02-03T22:07:44.467Z,98907.06
2023-02-03T22:10:12.372Z,98906.19
2023-02-03T22:12:40.326Z,98915.53
2023-02-03T22:15:08.467Z,98819.19
2023-02-03T22:17:36.065Z,98835.28
2023-02-03T22:20:03.979Z,98866.19
2023-02-03T22:22:32.155Z,98889.91
2023-02-03T22:24:59.751Z,98922.56
2023-02-03T22:27:27.681Z,98811.00
2023-02-03T22:29:56.769Z,98919.22
2023-02-03T22:32:24.372Z,98907.97
2023-02-03T22:34:51.816Z,98910.47
2023-02-03T22:37:19.865Z,98827.94
2023-02-03T22:39:47.596Z,98862.31
2023-02-03T22:42:16.155Z,98926.59
2023-02-03T22:44:44.044Z,98928.41
2023-02-03T22:47:11.854Z,98930.25
2023-02-03T22:49:39.181Z,98896.72
2023-02-03T22:52:06.774Z,98938.00
2023-02-03T22:54:36.935Z,98920.81
2023-02-03T22:57:04.367Z,98914.91
2023-02-03T22:59:32.207Z,98810.91
2023-02-03T23:02:00.008Z,98835.88
2023-02-03T23:04:28.589Z,98939.25
2023-02-03T23:06:56.353Z,98925.28
2023-02-03T23:09:23.817Z,98940.75
2023-02-03T23:11:51.358Z,98900.31
2023-02-03T23:14:19.224Z,98926.06
2023-02-03T23:16:46.741Z,98930.44
2023-02-03T23:19:14.313Z,98935.63
2023-02-03T23:21:42.151Z,98931.13
2023-02-03T23:24:09.779Z,98944.81
2023-02-03T23:26:37.141Z,98923.16
2023-02-03T23:29:05.184Z,98938.69
2023-02-03T23:31:32.886Z,98948.28
2023-02-03T23:34:19.274Z,98941.25
2023-02-03T23:36:47.016Z,98772.00
2023-02-03T23:39:14.449Z,98901.59
2023-02-03T23:41:42.244Z,98945.44
2023-02-03T23:44:11.113Z,98938.75
2023-02-03T23:46:38.456Z,98929.28
2023-02-03T23:49:06.043Z,98953.38
2023-02-03T23:51:33.787Z,98953.38
2023-02-03T23:54:01.925Z,98792.91
2023-02-03T23:56:29.618Z,98956.09
2023-02-03T23:58:57.209Z,98965.59
